sensor_id;sensor_type;location;lat;lon;timestamp;temperature;humidity
20384;DHT22;46458;50.966;7.002;2024-03-02T00:02:15;8.90;99.90
20384;DHT22;46458;50.966;7.002;2024-03-02T00:04:44;8.80;99.90
20384;DHT22;46458;50.966;7.002;2024-03-02T00:07:14;8.80;99.90
20384;DHT22;46458;50.966;7.002;2024-03-02T00:09:45;8.80;99.90
20384;DHT22;46458;50.966;7.002;2024-03-02T00:12:15;8.90;99.90
20384;DHT22;46458;50.966;7.002;2024-03-02T00:14:53;9.20;99.90
20384;DHT22;46458;50.966;7.002;2024-03-02T00:17:25;9.00;99.90
20384;DHT22;46458;50.966;7.002;2024-03-02T00:19:54;9.00;99.90
20384;DHT22;46458;50.966;7.002;2024-03-02T00:22:22;9.00;99.90
20384;DHT22;46458;50.966;7.002;2024-03-02T00:24:51;8.80;99.90
20384;DHT22;46458;50.966;7.002;2024-03-02T00:27:20;8.90;99.90
20384;DHT22;46458;50.966;7.002;2024-03-02T00:29:53;8.80;97.00
20384;DHT22;46458;50.966;7.002;2024-03-02T00:32:25;9.00;99.90
20384;DHT22;46458;50.966;7.002;2024-03-02T00:34:54;9.30;99.90
20384;DHT22;46458;50.966;7.002;2024-03-02T00:37:23;9.20;99.90
20384;DHT22;46458;50.966;7.002;2024-03-02T00:39:55;9.00;18.80
20384;DHT22;46458;50.966;7.002;2024-03-02T00:42:23;9.00;99.90
20384;DHT22;46458;50.966;7.002;2024-03-02T00:44:57;9.00;99.90
20384;DHT22;46458;50.966;7.002;2024-03-02T00:47:30;8.70;99.90
20384;DHT22;46458;50.966;7.002;2024-03-02T00:49:59;9.00;99.90
20384;DHT22;46458;50.966;7.002;2024-03-02T00:52:29;9.00;97.90
20384;DHT22;46458;50.966;7.002;2024-03-02T00:54:58;9.10;99.90
20384;DHT22;46458;50.966;7.002;2024-03-02T00:57:30;9.00;98.80
20384;DHT22;46458;50.966;7.002;2024-03-02T01:00:06;9.10;99.90
20384;DHT22;46458;50.966;7.002;2024-03-02T01:02:42;8.90;44.00
20384;DHT22;46458;50.966;7.002;2024-03-02T01:05:12;9.00;99.90
20384;DHT22;46458;50.966;7.002;2024-03-02T01:07:41;8.90;67.40
20384;DHT22;46458;50.966;7.002;2024-03-02T01:10:10;9.00;99.90
20384;DHT22;46458;50.966;7.002;2024-03-02T01:12:39;9.20;99.90
20384;DHT22;46458;50.966;7.002;2024-03-02T01:15:10;8.90;99.90
20384;DHT22;46458;50.966;7.002;2024-03-02T01:17:39;8.80;99.90
20384;DHT22;46458;50.966;7.002;2024-03-02T01:20:09;8.80;99.90
20384;DHT22;46458;50.966;7.002;2024-03-02T01:22:38;8.50;89.40
20384;DHT22;46458;50.966;7.002;2024-03-02T01:25:08;8.80;99.90
20384;DHT22;46458;50.966;7.002;2024-03-02T01:27:37;8.60;99.90
20384;DHT22;46458;50.966;7.002;2024-03-02T01:30:07;8.60;99.90
20384;DHT22;46458;50.966;7.002;2024-03-02T01:32:40;8.60;72.00
20384;DHT22;46458;50.966;7.002;2024-03-02T01:35:12;8.60;99.90
20384;DHT22;46458;50.966;7.002;2024-03-02T01:37:41;8.80;99.90
20384;DHT22;46458;50.966;7.002;2024-03-02T01:40:13;8.60;99.90
20384;DHT22;46458;50.966;7.002;2024-03-02T01:42:43;10.10;1.00
20384;DHT22;46458;50.966;7.002;2024-03-02T01:45:12;8.50;99.90
20384;DHT22;46458;50.966;7.002;2024-03-02T01:47:43;8.40;99.90
20384;DHT22;46458;50.966;7.002;2024-03-02T01:50:12;8.60;99.90
20384;DHT22;46458;50.966;7.002;2024-03-02T01:52:46;8.60;99.90
20384;DHT22;46458;50.966;7.002;2024-03-02T01:55:15;8.60;99.90
20384;DHT22;46458;50.966;7.002;2024-03-02T01:57:43;8.70;99.90
20384;DHT22;46458;50.966;7.002;2024-03-02T02:00:14;8.80;99.90
20384;DHT22;46458;50.966;7.002;2024-03-02T02:02:49;8.60;99.90
20384;DHT22;46458;50.966;7.002;2024-03-02T02:05:18;8.70;99.90
20384;DHT22;46458;50.966;7.002;2024-03-02T02:07:46;8.60;99.90
20384;DHT22;46458;50.966;7.002;2024-03-02T02:10:16;8.80;93.30
20384;DHT22;46458;50.966;7.002;2024-03-02T02:12:44;8.70;99.90
20384;DHT22;46458;50.966;7.002;2024-03-02T02:15:29;9.10;99.90
20384;DHT22;46458;50.966;7.002;2024-03-02T02:18:04;9.10;99.90
20384;DHT22;46458;50.966;7.002;2024-03-02T02:20:32;8.80;90.60
20384;DHT22;46458;50.966;7.002;2024-03-02T02:23:04;8.90;99.90
20384;DHT22;46458;50.966;7.002;2024-03-02T02:25:35;8.80;97.60
20384;DHT22;46458;50.966;7.002;2024-03-02T02:28:04;8.90;99.90
20384;DHT22;46458;50.966;7.002;2024-03-02T02:30:35;8.70;99.90
20384;DHT22;46458;50.966;7.002;2024-03-02T02:33:04;8.80;99.90
20384;DHT22;46458;50.966;7.002;2024-03-02T02:35:33;8.90;99.90
20384;DHT22;46458;50.966;7.002;2024-03-02T02:38:05;9.40;99.90
20384;DHT22;46458;50.966;7.002;2024-03-02T02:40:34;8.90;99.90
20384;DHT22;46458;50.966;7.002;2024-03-02T02:43:03;8.90;99.90
20384;DHT22;46458;50.966;7.002;2024-03-02T02:45:32;8.80;99.90
20384;DHT22;46458;50.966;7.002;2024-03-02T02:48:01;8.70;99.90
20384;DHT22;46458;50.966;7.002;2024-03-02T02:50:33;8.80;99.90
20384;DHT22;46458;50.966;7.002;2024-03-02T02:53:04;8.90;99.90
20384;DHT22;46458;50.966;7.002;2024-03-02T02:55:35;8.90;99.90
20384;DHT22;46458;50.966;7.002;2024-03-02T02:58:06;8.80;99.90
20384;DHT22;46458;50.966;7.002;2024-03-02T03:00:35;8.80;97.30
20384;DHT22;46458;50.966;7.002;2024-03-02T03:03:05;8.90;97.40
20384;DHT22;46458;50.966;7.002;2024-03-02T03:05:37;8.90;96.50
20384;DHT22;46458;50.966;7.002;2024-03-02T03:08:08;8.40;1.00
20384;DHT22;46458;50.966;7.002;2024-03-02T03:10:37;8.90;99.90
20384;DHT22;46458;50.966;7.002;2024-03-02T03:13:08;9.00;93.30
20384;DHT22;46458;50.966;7.002;2024-03-02T03:15:37;9.00;95.70
20384;DHT22;46458;50.966;7.002;2024-03-02T03:18:08;9.10;89.80
20384;DHT22;46458;50.966;7.002;2024-03-02T03:20:37;8.80;96.00
20384;DHT22;46458;50.966;7.002;2024-03-02T03:23:08;8.80;88.00
20384;DHT22;46458;50.966;7.002;2024-03-02T03:25:40;8.80;93.30
20384;DHT22;46458;50.966;7.002;2024-03-02T03:28:09;9.10;81.20
20384;DHT22;46458;50.966;7.002;2024-03-02T03:30:36;8.90;86.10
20384;DHT22;46458;50.966;7.002;2024-03-02T03:33:08;8.80;84.30
20384;DHT22;46458;50.966;7.002;2024-03-02T03:35:40;8.80;99.90
20384;DHT22;46458;50.966;7.002;2024-03-02T03:38:12;8.80;84.70
20384;DHT22;46458;50.966;7.002;2024-03-02T03:40:40;9.10;86.70
20384;DHT22;46458;50.966;7.002;2024-03-02T03:43:11;8.80;92.90
20384;DHT22;46458;50.966;7.002;2024-03-02T03:45:40;8.80;92.70
20384;DHT22;46458;50.966;7.002;2024-03-02T03:48:08;8.90;90.30
20384;DHT22;46458;50.966;7.002;2024-03-02T03:50:37;8.80;97.90
20384;DHT22;46458;50.966;7.002;2024-03-02T03:53:18;9.00;99.90
20384;DHT22;46458;50.966;7.002;2024-03-02T03:55:48;8.80;98.30
20384;DHT22;46458;50.966;7.002;2024-03-02T03:58:17;8.80;83.40
20384;DHT22;46458;50.966;7.002;2024-03-02T04:00:46;8.90;94.20
20384;DHT22;46458;50.966;7.002;2024-03-02T04:03:15;8.60;89.10
20384;DHT22;46458;50.966;7.002;2024-03-02T04:05:44;8.80;98.40
20384;DHT22;46458;50.966;7.002;2024-03-02T04:08:15;8.70;94.20
20384;DHT22;46458;50.966;7.002;2024-03-02T04:10:44;8.70;96.30
20384;DHT22;46458;50.966;7.002;2024-03-02T04:13:13;8.70;99.70
20384;DHT22;46458;50.966;7.002;2024-03-02T04:15:50;8.50;99.90
20384;DHT22;46458;50.966;7.002;2024-03-02T04:18:19;8.60;99.90
20384;DHT22;46458;50.966;7.002;2024-03-02T04:20:48;8.60;84.60
20384;DHT22;46458;50.966;7.002;2024-03-02T04:23:19;8.30;99.90
20384;DHT22;46458;50.966;7.002;2024-03-02T04:25:48;8.40;99.90
20384;DHT22;46458;50.966;7.002;2024-03-02T04:28:17;8.30;99.90
20384;DHT22;46458;50.966;7.002;2024-03-02T04:30:46;8.30;99.90
20384;DHT22;46458;50.966;7.002;2024-03-02T04:33:17;8.50;99.90
20384;DHT22;46458;50.966;7.002;2024-03-02T04:35:46;8.30;99.90
20384;DHT22;46458;50.966;7.002;2024-03-02T04:38:15;8.30;99.90
20384;DHT22;46458;50.966;7.002;2024-03-02T04:40:46;8.40;99.90
20384;DHT22;46458;50.966;7.002;2024-03-02T04:43:15;8.40;99.90
20384;DHT22;46458;50.966;7.002;2024-03-02T04:45:47;8.70;99.90
20384;DHT22;46458;50.966;7.002;2024-03-02T04:48:16;8.20;99.90
20384;DHT22;46458;50.966;7.002;2024-03-02T04:50:45;8.20;99.90
20384;DHT22;46458;50.966;7.002;2024-03-02T04:53:14;8.50;99.90
20384;DHT22;46458;50.966;7.002;2024-03-02T04:55:47;8.50;99.90
20384;DHT22;46458;50.966;7.002;2024-03-02T04:58:29;8.20;99.90
20384;DHT22;46458;50.966;7.002;2024-03-02T05:00:58;8.00;99.90
20384;DHT22;46458;50.966;7.002;2024-03-02T05:03:27;8.00;99.90
20384;DHT22;46458;50.966;7.002;2024-03-02T05:05:55;7.90;99.90
20384;DHT22;46458;50.966;7.002;2024-03-02T05:08:24;8.10;99.90
20384;DHT22;46458;50.966;7.002;2024-03-02T05:10:55;7.90;99.90
20384;DHT22;46458;50.966;7.002;2024-03-02T05:13:45;8.00;99.90
20384;DHT22;46458;50.966;7.002;2024-03-02T05:16:11;7.90;99.90
20384;DHT22;46458;50.966;7.002;2024-03-02T05:18:40;7.80;99.90
20384;DHT22;46458;50.966;7.002;2024-03-02T05:21:11;7.70;99.90
20384;DHT22;46458;50.966;7.002;2024-03-02T05:23:40;7.50;99.90
20384;DHT22;46458;50.966;7.002;2024-03-02T05:26:12;7.60;99.90
20384;DHT22;46458;50.966;7.002;2024-03-02T05:28:41;7.80;99.90
20384;DHT22;46458;50.966;7.002;2024-03-02T05:31:10;7.60;99.90
20384;DHT22;46458;50.966;7.002;2024-03-02T05:33:39;7.60;99.90
20384;DHT22;46458;50.966;7.002;2024-03-02T05:36:09;7.50;99.90
20384;DHT22;46458;50.966;7.002;2024-03-02T05:38:38;7.80;99.90
20384;DHT22;46458;50.966;7.002;2024-03-02T05:41:07;7.40;99.90
20384;DHT22;46458;50.966;7.002;2024-03-02T05:43:38;7.50;99.90
20384;DHT22;46458;50.966;7.002;2024-03-02T05:46:07;7.60;99.90
20384;DHT22;46458;50.966;7.002;2024-03-02T05:48:36;7.40;99.90
20384;DHT22;46458;50.966;7.002;2024-03-02T05:51:05;7.50;99.90
20384;DHT22;46458;50.966;7.002;2024-03-02T05:53:37;7.40;99.90
20384;DHT22;46458;50.966;7.002;2024-03-02T05:56:11;7.60;99.90
20384;DHT22;46458;50.966;7.002;2024-03-02T05:58:43;7.50;99.90
20384;DHT22;46458;50.966;7.002;2024-03-02T06:01:23;7.20;99.90
20384;DHT22;46458;50.966;7.002;2024-03-02T06:03:55;7.40;99.90
20384;DHT22;46458;50.966;7.002;2024-03-02T06:06:24;7.40;99.90
20384;DHT22;46458;50.966;7.002;2024-03-02T06:08:53;7.50;99.90
20384;DHT22;46458;50.966;7.002;2024-03-02T06:11:22;7.50;99.90
20384;DHT22;46458;50.966;7.002;2024-03-02T06:13:56;7.70;99.90
20384;DHT22;46458;50.966;7.002;2024-03-02T06:16:25;7.50;99.90
20384;DHT22;46458;50.966;7.002;2024-03-02T06:18:54;7.60;99.90
20384;DHT22;46458;50.966;7.002;2024-03-02T06:21:23;7.60;99.90
20384;DHT22;46458;50.966;7.002;2024-03-02T06:23:58;7.90;99.90
20384;DHT22;46458;50.966;7.002;2024-03-02T06:26:28;7.70;99.90
20384;DHT22;46458;50.966;7.002;2024-03-02T06:29:02;7.90;99.90
20384;DHT22;46458;50.966;7.002;2024-03-02T06:31:33;8.00;99.90
20384;DHT22;46458;50.966;7.002;2024-03-02T06:34:02;7.50;99.90
20384;DHT22;46458;50.966;7.002;2024-03-02T06:36:29;7.60;99.90
20384;DHT22;46458;50.966;7.002;2024-03-02T06:38:58;7.60;99.90
20384;DHT22;46458;50.966;7.002;2024-03-02T06:41:27;7.60;99.90
20384;DHT22;46458;50.966;7.002;2024-03-02T06:43:57;7.70;99.90
20384;DHT22;46458;50.966;7.002;2024-03-02T06:46:29;7.70;99.90
20384;DHT22;46458;50.966;7.002;2024-03-02T06:48:58;7.80;99.90
20384;DHT22;46458;50.966;7.002;2024-03-02T06:51:28;7.90;99.90
20384;DHT22;46458;50.966;7.002;2024-03-02T06:53:57;7.70;99.90
20384;DHT22;46458;50.966;7.002;2024-03-02T06:56:26;7.70;99.90
20384;DHT22;46458;50.966;7.002;2024-03-02T06:58:56;7.70;99.90
20384;DHT22;46458;50.966;7.002;2024-03-02T07:01:30;7.70;99.90
20384;DHT22;46458;50.966;7.002;2024-03-02T07:03:59;7.50;99.90
20384;DHT22;46458;50.966;7.002;2024-03-02T07:06:28;7.80;99.90
20384;DHT22;46458;50.966;7.002;2024-03-02T07:08:57;7.70;99.90
20384;DHT22;46458;50.966;7.002;2024-03-02T07:11:25;7.70;99.90
20384;DHT22;46458;50.966;7.002;2024-03-02T07:13:56;7.70;99.90
20384;DHT22;46458;50.966;7.002;2024-03-02T07:16:25;7.80;99.90
20384;DHT22;46458;50.966;7.002;2024-03-02T07:19:01;7.80;99.90
20384;DHT22;46458;50.966;7.002;2024-03-02T07:21:30;8.10;99.90
20384;DHT22;46458;50.966;7.002;2024-03-02T07:23:59;8.30;99.90
20384;DHT22;46458;50.966;7.002;2024-03-02T07:26:31;8.60;99.90
20384;DHT22;46458;50.966;7.002;2024-03-02T07:29:01;8.30;99.90
20384;DHT22;46458;50.966;7.002;2024-03-02T07:31:33;8.40;99.90
20384;DHT22;46458;50.966;7.002;2024-03-02T07:34:04;8.30;99.90
20384;DHT22;46458;50.966;7.002;2024-03-02T07:36:33;8.40;99.90
20384;DHT22;46458;50.966;7.002;2024-03-02T07:39:08;8.30;99.90
20384;DHT22;46458;50.966;7.002;2024-03-02T07:41:37;8.50;99.90
20384;DHT22;46458;50.966;7.002;2024-03-02T07:44:05;8.50;99.90
20384;DHT22;46458;50.966;7.002;2024-03-02T07:46:34;8.60;99.90
20384;DHT22;46458;50.966;7.002;2024-03-02T07:49:06;8.60;99.90
20384;DHT22;46458;50.966;7.002;2024-03-02T07:51:35;8.70;99.90
20384;DHT22;46458;50.966;7.002;2024-03-02T07:54:04;9.00;99.90
20384;DHT22;46458;50.966;7.002;2024-03-02T07:56:33;8.80;99.90
20384;DHT22;46458;50.966;7.002;2024-03-02T07:59:05;8.90;99.90
20384;DHT22;46458;50.966;7.002;2024-03-02T08:01:36;9.00;99.90
20384;DHT22;46458;50.966;7.002;2024-03-02T08:04:08;9.20;99.90
20384;DHT22;46458;50.966;7.002;2024-03-02T08:06:36;9.20;99.90
20384;DHT22;46458;50.966;7.002;2024-03-02T08:09:05;9.20;99.90
20384;DHT22;46458;50.966;7.002;2024-03-02T08:11:36;9.10;99.90
20384;DHT22;46458;50.966;7.002;2024-03-02T08:14:04;9.20;95.80
20384;DHT22;46458;50.966;7.002;2024-03-02T08:16:33;9.60;99.10
20384;DHT22;46458;50.966;7.002;2024-03-02T08:19:02;9.20;95.70
20384;DHT22;46458;50.966;7.002;2024-03-02T08:21:33;9.30;83.20
20384;DHT22;46458;50.966;7.002;2024-03-02T08:24:06;9.50;86.90
20384;DHT22;46458;50.966;7.002;2024-03-02T08:26:35;9.60;1.00
20384;DHT22;46458;50.966;7.002;2024-03-02T08:29:04;10.10;63.00
20384;DHT22;46458;50.966;7.002;2024-03-02T08:31:33;10.20;43.10
20384;DHT22;46458;50.966;7.002;2024-03-02T08:34:01;10.40;24.70
20384;DHT22;46458;50.966;7.002;2024-03-02T08:36:34;10.50;8.70
20384;DHT22;46458;50.966;7.002;2024-03-02T08:39:02;10.80;10.60
20384;DHT22;46458;50.966;7.002;2024-03-02T08:41:41;10.90;1.00
20384;DHT22;46458;50.966;7.002;2024-03-02T08:44:10;11.30;1.00
20384;DHT22;46458;50.966;7.002;2024-03-02T08:46:40;11.70;1.00
20384;DHT22;46458;50.966;7.002;2024-03-02T08:49:11;12.10;1.00
20384;DHT22;46458;50.966;7.002;2024-03-02T08:51:47;12.30;1.00
20384;DHT22;46458;50.966;7.002;2024-03-02T08:54:20;12.20;1.00
20384;DHT22;46458;50.966;7.002;2024-03-02T08:56:50;12.10;1.00
20384;DHT22;46458;50.966;7.002;2024-03-02T08:59:19;12.10;1.00
20384;DHT22;46458;50.966;7.002;2024-03-02T09:01:48;12.20;1.00
20384;DHT22;46458;50.966;7.002;2024-03-02T09:04:17;12.60;1.00
20384;DHT22;46458;50.966;7.002;2024-03-02T09:06:50;12.90;1.00
20384;DHT22;46458;50.966;7.002;2024-03-02T09:09:29;13.00;1.00
20384;DHT22;46458;50.966;7.002;2024-03-02T09:11:59;12.30;1.00
20384;DHT22;46458;50.966;7.002;2024-03-02T09:14:28;13.40;1.00
20384;DHT22;46458;50.966;7.002;2024-03-02T09:17:02;13.50;1.00
20384;DHT22;46458;50.966;7.002;2024-03-02T09:19:31;13.40;1.00
20384;DHT22;46458;50.966;7.002;2024-03-02T09:22:04;13.60;1.00
20384;DHT22;46458;50.966;7.002;2024-03-02T09:24:42;14.20;1.00
20384;DHT22;46458;50.966;7.002;2024-03-02T09:27:14;14.40;1.00
20384;DHT22;46458;50.966;7.002;2024-03-02T09:29:46;14.10;1.00
20384;DHT22;46458;50.966;7.002;2024-03-02T09:32:14;14.30;1.00
20384;DHT22;46458;50.966;7.002;2024-03-02T09:34:43;14.10;1.00
20384;DHT22;46458;50.966;7.002;2024-03-02T09:37:18;14.20;1.00
20384;DHT22;46458;50.966;7.002;2024-03-02T09:39:50;14.40;1.00
20384;DHT22;46458;50.966;7.002;2024-03-02T09:42:19;14.10;1.00
20384;DHT22;46458;50.966;7.002;2024-03-02T09:44:49;14.20;1.00
20384;DHT22;46458;50.966;7.002;2024-03-02T09:47:18;14.40;1.00
20384;DHT22;46458;50.966;7.002;2024-03-02T09:49:47;14.30;1.00
20384;DHT22;46458;50.966;7.002;2024-03-02T09:52:18;14.50;1.00
20384;DHT22;46458;50.966;7.002;2024-03-02T09:54:48;13.90;1.00
20384;DHT22;46458;50.966;7.002;2024-03-02T09:57:18;13.80;1.00
20384;DHT22;46458;50.966;7.002;2024-03-02T09:59:47;13.90;1.00
20384;DHT22;46458;50.966;7.002;2024-03-02T10:02:18;14.10;1.00
20384;DHT22;46458;50.966;7.002;2024-03-02T10:04:49;14.20;1.00
20384;DHT22;46458;50.966;7.002;2024-03-02T10:07:20;14.60;1.00
20384;DHT22;46458;50.966;7.002;2024-03-02T10:09:51;15.10;1.00
20384;DHT22;46458;50.966;7.002;2024-03-02T10:12:20;15.50;1.00
20384;DHT22;46458;50.966;7.002;2024-03-02T10:14:49;15.20;1.00
20384;DHT22;46458;50.966;7.002;2024-03-02T10:17:18;14.90;1.00
20384;DHT22;46458;50.966;7.002;2024-03-02T10:19:47;15.00;1.00
20384;DHT22;46458;50.966;7.002;2024-03-02T10:22:16;15.00;1.00
20384;DHT22;46458;50.966;7.002;2024-03-02T10:24:50;15.50;1.00
20384;DHT22;46458;50.966;7.002;2024-03-02T10:27:25;15.40;1.00
20384;DHT22;46458;50.966;7.002;2024-03-02T10:29:57;16.00;1.00
20384;DHT22;46458;50.966;7.002;2024-03-02T10:32:26;16.10;1.00
20384;DHT22;46458;50.966;7.002;2024-03-02T10:34:58;15.90;1.00
20384;DHT22;46458;50.966;7.002;2024-03-02T10:37:27;16.70;1.00
20384;DHT22;46458;50.966;7.002;2024-03-02T10:40:04;16.30;1.00
20384;DHT22;46458;50.966;7.002;2024-03-02T10:42:35;16.30;1.00
20384;DHT22;46458;50.966;7.002;2024-03-02T10:45:06;16.70;1.00
20384;DHT22;46458;50.966;7.002;2024-03-02T10:47:36;16.60;99.90
20384;DHT22;46458;50.966;7.002;2024-03-02T10:50:07;17.10;99.90
20384;DHT22;46458;50.966;7.002;2024-03-02T10:52:37;17.00;99.90
20384;DHT22;46458;50.966;7.002;2024-03-02T10:55:11;17.50;99.90
20384;DHT22;46458;50.966;7.002;2024-03-02T10:57:42;17.60;99.90
20384;DHT22;46458;50.966;7.002;2024-03-02T11:00:17;17.90;99.90
20384;DHT22;46458;50.966;7.002;2024-03-02T11:02:51;17.30;1.00
20384;DHT22;46458;50.966;7.002;2024-03-02T11:05:27;17.80;99.90
20384;DHT22;46458;50.966;7.002;2024-03-02T11:08:00;18.00;99.90
20384;DHT22;46458;50.966;7.002;2024-03-02T11:10:41;18.00;99.90
20384;DHT22;46458;50.966;7.002;2024-03-02T11:13:14;18.00;99.90
20384;DHT22;46458;50.966;7.002;2024-03-02T11:15:44;18.10;99.90
20384;DHT22;46458;50.966;7.002;2024-03-02T11:18:14;17.20;99.90
20384;DHT22;46458;50.966;7.002;2024-03-02T11:20:43;17.20;99.90
20384;DHT22;46458;50.966;7.002;2024-03-02T11:23:12;17.00;99.90
20384;DHT22;46458;50.966;7.002;2024-03-02T11:25:46;17.40;99.90
20384;DHT22;46458;50.966;7.002;2024-03-02T11:28:15;18.00;99.90
20384;DHT22;46458;50.966;7.002;2024-03-02T11:30:51;18.00;99.90
20384;DHT22;46458;50.966;7.002;2024-03-02T11:33:24;18.10;99.90
20384;DHT22;46458;50.966;7.002;2024-03-02T11:35:57;17.90;99.90
20384;DHT22;46458;50.966;7.002;2024-03-02T11:38:32;18.30;99.90
20384;DHT22;46458;50.966;7.002;2024-03-02T11:41:06;18.30;99.90
20384;DHT22;46458;50.966;7.002;2024-03-02T11:43:40;18.60;1.00
20384;DHT22;46458;50.966;7.002;2024-03-02T11:46:10;19.10;99.90
20384;DHT22;46458;50.966;7.002;2024-03-02T11:48:39;19.40;99.90
20384;DHT22;46458;50.966;7.002;2024-03-02T11:51:11;18.90;99.90
20384;DHT22;46458;50.966;7.002;2024-03-02T11:53:41;19.30;99.90
20384;DHT22;46458;50.966;7.002;2024-03-02T11:56:16;19.50;99.90
20384;DHT22;46458;50.966;7.002;2024-03-02T11:58:45;19.50;99.90
20384;DHT22;46458;50.966;7.002;2024-03-02T12:01:15;20.10;99.90
20384;DHT22;46458;50.966;7.002;2024-03-02T12:03:44;20.50;99.90
20384;DHT22;46458;50.966;7.002;2024-03-02T12:06:14;20.30;99.90
20384;DHT22;46458;50.966;7.002;2024-03-02T12:08:44;20.20;99.90
20384;DHT22;46458;50.966;7.002;2024-03-02T12:11:16;20.20;90.10
20384;DHT22;46458;50.966;7.002;2024-03-02T12:13:52;19.60;99.90
20384;DHT22;46458;50.966;7.002;2024-03-02T12:16:24;19.30;99.90
20384;DHT22;46458;50.966;7.002;2024-03-02T12:18:53;18.20;99.90
20384;DHT22;46458;50.966;7.002;2024-03-02T12:21:22;17.50;99.90
20384;DHT22;46458;50.966;7.002;2024-03-02T12:23:50;18.00;99.90
20384;DHT22;46458;50.966;7.002;2024-03-02T12:26:23;18.00;99.90
20384;DHT22;46458;50.966;7.002;2024-03-02T12:28:53;18.80;99.90
20384;DHT22;46458;50.966;7.002;2024-03-02T12:31:25;19.50;99.90
20384;DHT22;46458;50.966;7.002;2024-03-02T12:33:57;20.10;1.00
20384;DHT22;46458;50.966;7.002;2024-03-02T12:36:28;20.70;63.50
20384;DHT22;46458;50.966;7.002;2024-03-02T12:38:56;21.00;96.50
20384;DHT22;46458;50.966;7.002;2024-03-02T12:41:28;21.00;76.80
20384;DHT22;46458;50.966;7.002;2024-03-02T12:44:03;20.20;82.60
20384;DHT22;46458;50.966;7.002;2024-03-02T12:46:32;19.70;99.90
20384;DHT22;46458;50.966;7.002;2024-03-02T12:49:08;19.80;78.60
20384;DHT22;46458;50.966;7.002;2024-03-02T12:51:40;20.80;97.20
20384;DHT22;46458;50.966;7.002;2024-03-02T12:54:10;21.00;82.50
20384;DHT22;46458;50.966;7.002;2024-03-02T12:56:41;21.10;59.10
20384;DHT22;46458;50.966;7.002;2024-03-02T12:59:18;20.80;51.90
20384;DHT22;46458;50.966;7.002;2024-03-02T13:01:52;19.40;1.00
20384;DHT22;46458;50.966;7.002;2024-03-02T13:04:23;19.50;90.30
20384;DHT22;46458;50.966;7.002;2024-03-02T13:06:54;19.40;95.00
20384;DHT22;46458;50.966;7.002;2024-03-02T13:09:24;19.90;91.20
20384;DHT22;46458;50.966;7.002;2024-03-02T13:11:55;19.70;87.00
20384;DHT22;46458;50.966;7.002;2024-03-02T13:14:25;20.40;67.70
20384;DHT22;46458;50.966;7.002;2024-03-02T13:16:54;20.50;48.80
20384;DHT22;46458;50.966;7.002;2024-03-02T13:19:23;20.40;57.30
20384;DHT22;46458;50.966;7.002;2024-03-02T13:21:51;20.10;57.30
20384;DHT22;46458;50.966;7.002;2024-03-02T13:26:51;18.90;1.00
20384;DHT22;46458;50.966;7.002;2024-03-02T13:29:24;19.10;55.50
20384;DHT22;46458;50.966;7.002;2024-03-02T13:31:53;19.00;88.30
20384;DHT22;46458;50.966;7.002;2024-03-02T13:34:23;19.20;90.20
20384;DHT22;46458;50.966;7.002;2024-03-02T13:36:52;18.60;75.10
20384;DHT22;46458;50.966;7.002;2024-03-02T13:39:21;19.30;96.70
20384;DHT22;46458;50.966;7.002;2024-03-02T13:41:50;18.70;57.00
20384;DHT22;46458;50.966;7.002;2024-03-02T13:44:31;18.20;1.00
20384;DHT22;46458;50.966;7.002;2024-03-02T13:47:01;19.70;1.00
20384;DHT22;46458;50.966;7.002;2024-03-02T13:49:30;20.00;4.70
20384;DHT22;46458;50.966;7.002;2024-03-02T13:52:03;21.40;1.00
20384;DHT22;46458;50.966;7.002;2024-03-02T13:54:43;21.50;1.00
20384;DHT22;46458;50.966;7.002;2024-03-02T13:57:12;22.30;5.50
20384;DHT22;46458;50.966;7.002;2024-03-02T13:59:45;23.10;12.00
20384;DHT22;46458;50.966;7.002;2024-03-02T14:02:14;22.80;7.20
20384;DHT22;46458;50.966;7.002;2024-03-02T14:04:43;21.10;11.20
20384;DHT22;46458;50.966;7.002;2024-03-02T14:07:12;21.90;1.00
20384;DHT22;46458;50.966;7.002;2024-03-02T14:09:40;21.80;2.70
20384;DHT22;46458;50.966;7.002;2024-03-02T14:14:39;20.40;1.00
20384;DHT22;46458;50.966;7.002;2024-03-02T14:17:10;20.60;12.40
20384;DHT22;46458;50.966;7.002;2024-03-02T14:19:41;20.00;23.60
20384;DHT22;46458;50.966;7.002;2024-03-02T14:22:10;20.00;25.80
20384;DHT22;46458;50.966;7.002;2024-03-02T14:27:12;19.70;1.00
20384;DHT22;46458;50.966;7.002;2024-03-02T14:29:42;19.90;18.60
20384;DHT22;46458;50.966;7.002;2024-03-02T14:32:16;20.00;17.50
20384;DHT22;46458;50.966;7.002;2024-03-02T14:34:44;19.20;13.10
20384;DHT22;46458;50.966;7.002;2024-03-02T14:37:14;20.10;22.30
20384;DHT22;46458;50.966;7.002;2024-03-02T14:39:43;19.40;14.40
20384;DHT22;46458;50.966;7.002;2024-03-02T14:44:41;18.00;1.00
20384;DHT22;46458;50.966;7.002;2024-03-02T14:47:12;17.60;30.00
20384;DHT22;46458;50.966;7.002;2024-03-02T14:49:46;17.60;46.30
20384;DHT22;46458;50.966;7.002;2024-03-02T14:52:15;16.90;1.00
20384;DHT22;46458;50.966;7.002;2024-03-02T14:54:44;16.60;64.00
20384;DHT22;46458;50.966;7.002;2024-03-02T14:57:13;16.40;30.50
20384;DHT22;46458;50.966;7.002;2024-03-02T14:59:42;16.40;82.90
20384;DHT22;46458;50.966;7.002;2024-03-02T15:02:13;16.10;95.10
20384;DHT22;46458;50.966;7.002;2024-03-02T15:04:43;16.20;93.60
20384;DHT22;46458;50.966;7.002;2024-03-02T15:07:14;16.50;87.00
20384;DHT22;46458;50.966;7.002;2024-03-02T15:09:42;16.20;75.00
20384;DHT22;46458;50.966;7.002;2024-03-02T15:12:09;16.20;86.50
20384;DHT22;46458;50.966;7.002;2024-03-02T15:14:39;15.60;57.10
20384;DHT22;46458;50.966;7.002;2024-03-02T15:17:14;16.00;99.90
20384;DHT22;46458;50.966;7.002;2024-03-02T15:19:46;15.90;99.70
20384;DHT22;46458;50.966;7.002;2024-03-02T15:22:15;15.80;93.60
20384;DHT22;46458;50.966;7.002;2024-03-02T15:24:48;15.80;94.60
20384;DHT22;46458;50.966;7.002;2024-03-02T15:27:20;16.00;97.80
20384;DHT22;46458;50.966;7.002;2024-03-02T15:29:48;16.00;99.90
20384;DHT22;46458;50.966;7.002;2024-03-02T15:32:20;15.90;61.70
20384;DHT22;46458;50.966;7.002;2024-03-02T15:34:55;15.90;70.10
20384;DHT22;46458;50.966;7.002;2024-03-02T15:39:53;15.80;1.00
20384;DHT22;46458;50.966;7.002;2024-03-02T15:42:22;16.00;90.30
20384;DHT22;46458;50.966;7.002;2024-03-02T15:44:51;16.00;69.90
20384;DHT22;46458;50.966;7.002;2024-03-02T15:47:23;16.00;79.10
20384;DHT22;46458;50.966;7.002;2024-03-02T15:49:52;15.80;93.70
20384;DHT22;46458;50.966;7.002;2024-03-02T15:52:23;15.90;95.30
20384;DHT22;46458;50.966;7.002;2024-03-02T15:54:52;16.00;89.50
20384;DHT22;46458;50.966;7.002;2024-03-02T15:57:21;15.90;88.30
20384;DHT22;46458;50.966;7.002;2024-03-02T15:59:50;15.80;92.80
20384;DHT22;46458;50.966;7.002;2024-03-02T16:02:25;15.80;94.50
20384;DHT22;46458;50.966;7.002;2024-03-02T16:04:53;15.80;98.10
20384;DHT22;46458;50.966;7.002;2024-03-02T16:07:23;15.60;94.90
20384;DHT22;46458;50.966;7.002;2024-03-02T16:09:52;15.70;99.90
20384;DHT22;46458;50.966;7.002;2024-03-02T16:12:21;15.50;99.90
20384;DHT22;46458;50.966;7.002;2024-03-02T16:14:50;15.40;99.00
20384;DHT22;46458;50.966;7.002;2024-03-02T16:17:18;15.00;99.90